Time;durP1;ratioP1;P1;durP2;ratioP2;P2;SDS_P1;SDS_P2;PMS_P1;PMS_P2;Temp;Humidity;BMP_temperature;BMP_pressure;BME280_temperature;BME280_humidity;BME280_pressure;Samples;Min_cycle;Max_cycle;Signal;HPM_P1;HPM_P2
2023/05/24 00:00:43;;;;;;;;;;;20.00;55.00;;;;;;10329180;28;880;-70
2023/05/24 00:05:39;;;;;;;;;;;20.00;55.00;;;;;;10329612;28;837;-71
2023/05/24 00:10:35;;;;;;;;;;;20.00;54.90;;;;;;10329321;28;980;-71
2023/05/24 00:15:30;;;;;;;;;;;20.00;55.00;;;;;;10329094;28;1967;-70
2023/05/24 00:20:25;;;;;;;;;;;20.00;55.10;;;;;;10328974;28;938;-71
2023/05/24 00:25:21;;;;;;;;;;;20.00;55.10;;;;;;10328189;28;1020;-71
2023/05/24 00:30:16;;;;;;;;;;;20.00;55.00;;;;;;10327994;28;841;-71
2023/05/24 00:35:12;;;;;;;;;;;20.00;54.90;;;;;;10328826;28;1910;-71
2023/05/24 00:40:07;;;;;;;;;;;19.90;54.90;;;;;;10328758;28;810;-71
2023/05/24 00:45:02;;;;;;;;;;;19.90;55.00;;;;;;10328088;28;983;-71
2023/05/24 00:49:58;;;;;;;;;;;19.90;55.00;;;;;;10328362;28;936;-71
2023/05/24 00:54:53;;;;;;;;;;;19.90;54.90;;;;;;10326605;28;1910;-71
2023/05/24 00:59:48;;;;;;;;;;;19.90;54.90;;;;;;10327272;28;863;-70
2023/05/24 01:04:44;;;;;;;;;;;19.90;55.10;;;;;;10327208;28;914;-71
2023/05/24 01:09:39;;;;;;;;;;;19.90;54.80;;;;;;10327037;28;917;-71
2023/05/24 01:14:35;;;;;;;;;;;19.90;55.00;;;;;;10326197;28;1961;-71
2023/05/24 01:19:30;;;;;;;;;;;19.90;55.00;;;;;;10326580;28;883;-70
2023/05/24 01:24:26;;;;;;;;;;;19.90;54.80;;;;;;10325900;28;931;-71
2023/05/24 01:29:21;;;;;;;;;;;19.90;54.80;;;;;;10326328;28;813;-71
2023/05/24 01:34:16;;;;;;;;;;;19.90;55.10;;;;;;10326122;28;1406;-71
2023/05/24 01:39:13;;;;;;;;;;;19.90;54.70;;;;;;10326141;28;2066;-71
2023/05/24 01:44:08;;;;;;;;;;;19.90;54.80;;;;;;10326529;28;821;-71
2023/05/24 01:49:04;;;;;;;;;;;19.90;54.80;;;;;;10325961;28;905;-71
2023/05/24 01:53:59;;;;;;;;;;;19.80;54.90;;;;;;10325772;28;928;-71
2023/05/24 01:58:54;;;;;;;;;;;19.80;54.80;;;;;;10326133;28;1906;-71
2023/05/24 02:03:50;;;;;;;;;;;19.80;54.90;;;;;;10325428;28;916;-71
2023/05/24 02:08:46;;;;;;;;;;;19.80;54.80;;;;;;10325363;28;960;-71
2023/05/24 02:13:41;;;;;;;;;;;19.80;54.80;;;;;;10326022;28;822;-71
2023/05/24 02:18:36;;;;;;;;;;;19.80;54.90;;;;;;10325423;28;1902;-71
2023/05/24 02:23:32;;;;;;;;;;;19.80;54.70;;;;;;10325692;28;805;-71
2023/05/24 02:28:30;;;;;;;;;;;19.80;54.70;;;;;;10324451;28;766;-71
2023/05/24 02:33:28;;;;;;;;;;;19.80;54.70;;;;;;10325503;28;794;-71
2023/05/24 02:38:24;;;;;;;;;;;19.80;54.60;;;;;;10325138;28;1989;-71
2023/05/24 02:43:19;;;;;;;;;;;19.80;54.70;;;;;;10325325;28;948;-71
2023/05/24 02:48:14;;;;;;;;;;;19.80;54.60;;;;;;10325183;28;898;-71
2023/05/24 02:53:10;;;;;;;;;;;19.80;54.60;;;;;;10324517;28;877;-71
2023/05/24 02:58:07;;;;;;;;;;;19.80;54.60;;;;;;10324979;28;1973;-71
2023/05/24 03:03:02;;;;;;;;;;;19.80;54.60;;;;;;10325976;28;932;-71
2023/05/24 03:07:57;;;;;;;;;;;19.80;54.60;;;;;;10324304;28;789;-72
2023/05/24 03:12:53;;;;;;;;;;;19.80;54.60;;;;;;10324795;28;861;-71
2023/05/24 03:17:48;;;;;;;;;;;19.70;54.50;;;;;;10329298;28;1973;-71
2023/05/24 03:22:44;;;;;;;;;;;19.80;54.40;;;;;;10331865;28;781;-71
2023/05/24 03:27:39;;;;;;;;;;;19.70;54.60;;;;;;10331055;28;913;-71
2023/05/24 03:32:35;;;;;;;;;;;19.70;54.60;;;;;;10331916;28;932;-70
2023/05/24 03:37:30;;;;;;;;;;;19.70;54.70;;;;;;10330656;28;1980;-71
2023/05/24 03:42:25;;;;;;;;;;;19.70;54.60;;;;;;10331131;28;893;-71
2023/05/24 03:47:21;;;;;;;;;;;19.70;54.70;;;;;;10331370;28;797;-71
2023/05/24 03:52:16;;;;;;;;;;;19.70;54.40;;;;;;10330753;28;849;-71
2023/05/24 03:57:11;;;;;;;;;;;19.70;54.60;;;;;;10331124;28;1977;-71
2023/05/24 04:02:07;;;;;;;;;;;19.70;54.40;;;;;;10329216;28;883;-71
2023/05/24 04:07:02;;;;;;;;;;;19.70;54.20;;;;;;10329611;28;785;-72
2023/05/24 04:11:57;;;;;;;;;;;19.70;54.20;;;;;;10329367;28;932;-71
2023/05/24 04:16:53;;;;;;;;;;;19.70;54.30;;;;;;10329129;28;1902;-71
2023/05/24 04:21:49;;;;;;;;;;;19.70;54.20;;;;;;10328952;28;910;-70
2023/05/24 04:26:46;;;;;;;;;;;19.70;54.20;;;;;;10328760;28;727;-71
2023/05/24 04:31:44;;;;;;;;;;;19.70;54.20;;;;;;10328521;28;981;-70
2023/05/24 04:36:40;;;;;;;;;;;19.80;54.10;;;;;;10328637;28;1986;-71
2023/05/24 04:41:36;;;;;;;;;;;19.80;54.00;;;;;;10327506;28;1099;-71
2023/05/24 04:46:34;;;;;;;;;;;19.80;54.00;;;;;;10327887;28;774;-72
2023/05/24 04:51:29;;;;;;;;;;;19.90;54.00;;;;;;10327798;28;774;-71
2023/05/24 04:56:25;;;;;;;;;;;19.80;53.90;;;;;;10327609;28;1910;-70
2023/05/24 05:01:20;;;;;;;;;;;19.80;53.90;;;;;;10327981;28;791;-70
2023/05/24 05:06:15;;;;;;;;;;;19.90;53.90;;;;;;10326616;28;872;-71
2023/05/24 05:11:11;;;;;;;;;;;19.80;53.80;;;;;;10327992;28;794;-71
2023/05/24 05:16:06;;;;;;;;;;;19.90;53.80;;;;;;10326703;28;2022;-71
2023/05/24 05:21:02;;;;;;;;;;;19.90;53.70;;;;;;10327311;28;797;-72
2023/05/24 05:25:57;;;;;;;;;;;19.90;53.80;;;;;;10326501;28;786;-71
2023/05/24 05:30:52;;;;;;;;;;;19.90;53.70;;;;;;10326359;28;934;-71
2023/05/24 05:35:48;;;;;;;;;;;19.90;53.70;;;;;;10326271;28;1969;-71
2023/05/24 05:40:43;;;;;;;;;;;19.90;53.60;;;;;;10326548;28;884;-71
2023/05/24 05:45:39;;;;;;;;;;;19.90;53.70;;;;;;10326100;28;786;-71
2023/05/24 05:50:34;;;;;;;;;;;19.90;53.80;;;;;;10326674;28;875;-68
2023/05/24 05:55:29;;;;;;;;;;;19.80;53.80;;;;;;10325847;28;1949;-67
2023/05/24 06:00:25;;;;;;;;;;;19.80;53.80;;;;;;10326163;28;769;-68
2023/05/24 06:05:20;;;;;;;;;;;19.90;53.80;;;;;;10325694;28;778;-68
2023/05/24 06:10:16;;;;;;;;;;;19.80;54.00;;;;;;10325363;28;818;-69
2023/05/24 06:15:12;;;;;;;;;;;19.90;53.90;;;;;;10325441;28;1898;-67
2023/05/24 06:20:09;;;;;;;;;;;19.80;53.90;;;;;;10325191;28;935;-69
2023/05/24 06:25:05;;;;;;;;;;;19.80;54.00;;;;;;10325281;28;866;-69
2023/05/24 06:30:00;;;;;;;;;;;19.80;54.00;;;;;;10324979;28;1058;-71
2023/05/24 06:34:56;;;;;;;;;;;19.80;53.90;;;;;;10325103;28;1913;-69
2023/05/24 06:39:51;;;;;;;;;;;19.80;54.00;;;;;;10324205;28;927;-69
2023/05/24 06:44:46;;;;;;;;;;;19.90;53.90;;;;;;10325711;28;860;-69
2023/05/24 06:49:42;;;;;;;;;;;19.90;53.90;;;;;;10324675;28;877;-68
2023/05/24 06:54:37;;;;;;;;;;;19.90;53.70;;;;;;10332894;28;865;-68
2023/05/24 06:59:33;;;;;;;;;;;19.90;54.10;;;;;;10332640;28;1909;-71
2023/05/24 07:04:28;;;;;;;;;;;19.80;54.00;;;;;;10332423;28;809;-69
2023/05/24 07:09:23;;;;;;;;;;;19.90;54.60;;;;;;10331787;28;773;-69
2023/05/24 07:14:19;;;;;;;;;;;19.90;53.80;;;;;;10331633;28;785;-69
2023/05/24 07:19:15;;;;;;;;;;;19.90;53.90;;;;;;10331394;28;1969;-69
2023/05/24 07:24:10;;;;;;;;;;;19.90;54.20;;;;;;10330735;28;838;-69
2023/05/24 07:29:06;;;;;;;;;;;19.90;54.10;;;;;;10331010;28;882;-69
2023/05/24 07:34:01;;;;;;;;;;;19.90;54.20;;;;;;10330193;28;1259;-69
2023/05/24 07:38:56;;;;;;;;;;;19.90;54.30;;;;;;10330714;28;1934;-69
2023/05/24 07:43:52;;;;;;;;;;;19.90;54.40;;;;;;10331838;28;875;-70
2023/05/24 07:48:47;;;;;;;;;;;19.90;54.30;;;;;;10331144;28;916;-69
2023/05/24 07:53:42;;;;;;;;;;;19.90;54.00;;;;;;10330223;28;865;-69
2023/05/24 07:58:40;;;;;;;;;;;19.90;54.10;;;;;;10330491;28;1961;-69
2023/05/24 08:03:36;;;;;;;;;;;19.90;54.40;;;;;;10329462;28;874;-71
2023/05/24 08:08:32;;;;;;;;;;;19.90;54.40;;;;;;10329740;28;1000;-71
2023/05/24 08:13:27;;;;;;;;;;;19.90;54.20;;;;;;10329434;28;770;-71
2023/05/24 08:18:23;;;;;;;;;;;19.90;54.30;;;;;;10329068;28;1922;-71
2023/05/24 08:23:18;;;;;;;;;;;19.90;54.40;;;;;;10329039;28;776;-71
2023/05/24 08:28:15;;;;;;;;;;;19.90;54.40;;;;;;10328816;28;869;-69
2023/05/24 08:33:11;;;;;;;;;;;19.90;54.40;;;;;;10329136;28;913;-71
2023/05/24 08:38:06;;;;;;;;;;;19.90;54.40;;;;;;10327427;28;1922;-71
2023/05/24 08:43:01;;;;;;;;;;;19.90;54.50;;;;;;10328805;28;798;-72
2023/05/24 08:47:57;;;;;;;;;;;19.80;54.40;;;;;;10329103;28;946;-71
2023/05/24 08:52:53;;;;;;;;;;;19.90;54.30;;;;;;10327745;28;890;-69
2023/05/24 08:57:48;;;;;;;;;;;19.80;54.30;;;;;;10327520;28;1971;-69
2023/05/24 09:02:43;;;;;;;;;;;19.90;54.40;;;;;;10309621;28;1341;-71
2023/05/24 09:07:39;;;;;;;;;;;19.90;54.10;;;;;;10327195;28;755;-70
2023/05/24 09:12:35;;;;;;;;;;;19.90;54.30;;;;;;10326900;28;763;-70
2023/05/24 09:17:30;;;;;;;;;;;20.00;54.50;;;;;;10326672;28;1973;-70
2023/05/24 09:22:26;;;;;;;;;;;19.90;54.60;;;;;;10326668;28;945;-70
2023/05/24 09:27:21;;;;;;;;;;;19.90;54.70;;;;;;10326479;28;952;-71
2023/05/24 09:32:17;;;;;;;;;;;20.00;54.70;;;;;;10327215;28;873;-69
2023/05/24 09:37:12;;;;;;;;;;;20.00;54.70;;;;;;10326564;28;1906;-70
2023/05/24 09:42:08;;;;;;;;;;;20.00;54.70;;;;;;10326210;28;770;-70
2023/05/24 09:47:07;;;;;;;;;;;19.90;54.70;;;;;;10325953;28;884;-70
2023/05/24 09:52:03;;;;;;;;;;;19.90;54.70;;;;;;10325838;28;873;-70
2023/05/24 09:56:58;;;;;;;;;;;20.00;54.70;;;;;;10325941;28;1963;-70
2023/05/24 10:01:53;;;;;;;;;;;19.90;54.70;;;;;;10325596;28;763;-68
2023/05/24 10:06:49;;;;;;;;;;;19.90;54.70;;;;;;10326368;28;830;-68
2023/05/24 10:11:44;;;;;;;;;;;19.80;54.80;;;;;;10326686;28;888;-70
2023/05/24 10:16:40;;;;;;;;;;;19.80;54.70;;;;;;10325871;28;1905;-69
2023/05/24 10:21:36;;;;;;;;;;;19.80;54.60;;;;;;10325785;28;920;-70
2023/05/24 10:26:32;;;;;;;;;;;19.80;54.70;;;;;;10329796;28;966;-70
2023/05/24 10:31:27;;;;;;;;;;;19.80;54.70;;;;;;10334048;28;850;-70
2023/05/24 10:36:24;;;;;;;;;;;19.80;54.90;;;;;;10333726;28;1983;-70
2023/05/24 10:41:21;;;;;;;;;;;19.90;54.80;;;;;;10332978;28;889;-70
2023/05/24 10:46:16;;;;;;;;;;;19.90;54.70;;;;;;10332744;28;868;-70
2023/05/24 10:51:11;;;;;;;;;;;20.00;54.70;;;;;;10332517;28;954;-70
2023/05/24 10:56:07;;;;;;;;;;;19.90;54.60;;;;;;10332322;28;1977;-70
2023/05/24 11:01:03;;;;;;;;;;;19.90;54.80;;;;;;10332159;28;796;-70
2023/05/24 11:05:58;;;;;;;;;;;19.90;55.00;;;;;;10332274;28;1007;-71
2023/05/24 11:10:54;;;;;;;;;;;19.90;55.00;;;;;;10331811;28;771;-70
2023/05/24 11:15:50;;;;;;;;;;;19.90;55.20;;;;;;10331535;28;1957;-70
2023/05/24 11:20:46;;;;;;;;;;;19.90;55.10;;;;;;10356053;28;1872;-70
2023/05/24 11:25:42;;;;;;;;;;;19.90;55.20;;;;;;10373112;28;1692;-70
2023/05/24 11:30:37;;;;;;;;;;;19.90;55.20;;;;;;10372317;28;894;-70
2023/05/24 11:35:32;;;;;;;;;;;19.90;55.10;;;;;;10372049;28;1913;-70
2023/05/24 11:40:29;;;;;;;;;;;20.00;55.10;;;;;;10372208;28;860;-70
2023/05/24 11:45:24;;;;;;;;;;;20.00;55.00;;;;;;10371922;28;1586;-69
2023/05/24 11:50:19;;;;;;;;;;;19.90;55.10;;;;;;10371566;28;928;-70
2023/05/24 11:55:15;;;;;;;;;;;19.90;55.10;;;;;;10371889;28;1906;-70
2023/05/24 12:00:15;;;;;;;;;;;19.90;54.90;;;;;;10371115;28;833;-69
2023/05/24 12:05:13;;;;;;;;;;;20.00;55.00;;;;;;10370875;28;894;-69
2023/05/24 12:10:09;;;;;;;;;;;20.00;55.00;;;;;;10370718;28;937;-71
2023/05/24 12:15:04;;;;;;;;;;;19.90;55.10;;;;;;10371172;28;1913;-70
2023/05/24 12:20:00;;;;;;;;;;;19.90;55.00;;;;;;10371025;28;863;-70
2023/05/24 12:24:55;;;;;;;;;;;19.90;55.10;;;;;;10370804;28;846;-70
2023/05/24 12:29:51;;;;;;;;;;;19.90;55.20;;;;;;10370049;28;791;-70
2023/05/24 12:34:46;;;;;;;;;;;20.00;55.20;;;;;;10369381;28;1288;-69
2023/05/24 12:39:42;;;;;;;;;;;19.90;55.30;;;;;;10370128;28;1965;-70
2023/05/24 12:44:37;;;;;;;;;;;19.90;55.40;;;;;;10370279;28;1628;-70
2023/05/24 12:49:32;;;;;;;;;;;19.90;55.50;;;;;;10368902;28;786;-70
2023/05/24 12:54:28;;;;;;;;;;;19.80;55.40;;;;;;10369040;28;820;-70
2023/05/24 12:59:23;;;;;;;;;;;19.90;55.50;;;;;;10369869;28;1902;-70
2023/05/24 13:04:19;;;;;;;;;;;19.90;55.50;;;;;;10367782;28;1240;-70
2023/05/24 13:09:17;;;;;;;;;;;19.90;55.50;;;;;;10368204;28;956;-70
2023/05/24 13:14:14;;;;;;;;;;;19.90;55.50;;;;;;10368562;28;805;-69
2023/05/24 13:19:09;;;;;;;;;;;19.90;55.50;;;;;;10368383;28;1969;-70
2023/05/24 13:24:05;;;;;;;;;;;19.90;55.40;;;;;;10367033;28;830;-70
2023/05/24 13:29:00;;;;;;;;;;;19.90;55.50;;;;;;10367395;28;878;-71
2023/05/24 13:33:56;;;;;;;;;;;20.00;55.50;;;;;;10367650;28;1195;-71
2023/05/24 13:38:51;;;;;;;;;;;19.90;55.50;;;;;;10367154;28;1977;-70
2023/05/24 13:43:47;;;;;;;;;;;19.90;55.50;;;;;;10366979;28;933;-70
2023/05/24 13:48:42;;;;;;;;;;;20.00;55.60;;;;;;10367910;28;1622;-70
2023/05/24 13:53:38;;;;;;;;;;;20.00;55.60;;;;;;10366705;28;786;-69
2023/05/24 13:58:33;;;;;;;;;;;20.00;55.90;;;;;;10366955;28;1961;-71
2023/05/24 14:03:28;;;;;;;;;;;20.00;56.10;;;;;;10367499;28;903;-70
2023/05/24 14:08:24;;;;;;;;;;;20.00;56.20;;;;;;10366699;28;845;-70
2023/05/24 14:13:20;;;;;;;;;;;20.00;56.10;;;;;;10366715;28;896;-71
2023/05/24 14:18:15;;;;;;;;;;;19.90;56.20;;;;;;10366397;28;1959;-70
2023/05/24 14:23:11;;;;;;;;;;;20.00;56.30;;;;;;10366910;28;863;-70
2023/05/24 14:28:10;;;;;;;;;;;19.90;56.20;;;;;;10366244;28;1724;-70
2023/05/24 14:33:06;;;;;;;;;;;19.90;56.30;;;;;;10366164;28;777;-70
2023/05/24 14:38:02;;;;;;;;;;;19.90;56.20;;;;;;10366279;28;1985;-70
2023/05/24 14:42:57;;;;;;;;;;;20.00;56.20;;;;;;10366550;28;929;-70
2023/05/24 14:47:52;;;;;;;;;;;20.00;56.20;;;;;;10367285;28;939;-70
2023/05/24 14:52:48;;;;;;;;;;;19.90;56.20;;;;;;10366535;28;773;-71
2023/05/24 14:57:43;;;;;;;;;;;20.00;56.20;;;;;;10365581;28;1910;-70
2023/05/24 15:02:38;;;;;;;;;;;20.00;56.10;;;;;;10366184;28;806;-70
2023/05/24 15:07:34;;;;;;;;;;;19.90;56.20;;;;;;10366016;28;789;-70
2023/05/24 15:12:29;;;;;;;;;;;20.00;56.20;;;;;;10368102;28;844;-70
2023/05/24 15:17:25;;;;;;;;;;;20.00;56.10;;;;;;10372743;28;1909;-71
2023/05/24 15:22:20;;;;;;;;;;;20.00;56.10;;;;;;10373295;28;805;-70
2023/05/24 15:27:16;;;;;;;;;;;20.00;56.10;;;;;;10373062;28;841;-70
2023/05/24 15:32:11;;;;;;;;;;;20.00;56.20;;;;;;10372308;28;878;-70
2023/05/24 15:37:06;;;;;;;;;;;20.00;56.00;;;;;;10371301;28;1938;-70
2023/05/24 15:42:02;;;;;;;;;;;20.00;55.70;;;;;;10371386;28;984;-69
2023/05/24 15:46:58;;;;;;;;;;;20.00;55.60;;;;;;10371698;28;984;-70
2023/05/24 15:51:53;;;;;;;;;;;20.00;55.70;;;;;;10372310;28;798;-70
2023/05/24 15:56:48;;;;;;;;;;;20.10;55.80;;;;;;10372295;28;1910;-70
2023/05/24 16:01:44;;;;;;;;;;;20.00;55.80;;;;;;10371174;28;849;-72
2023/05/24 16:06:39;;;;;;;;;;;20.00;55.80;;;;;;10371652;28;789;-73
2023/05/24 16:11:35;;;;;;;;;;;20.00;55.80;;;;;;10370800;28;858;-70
2023/05/24 16:16:30;;;;;;;;;;;20.00;55.60;;;;;;10371145;28;1926;-70
2023/05/24 16:21:27;;;;;;;;;;;20.00;55.70;;;;;;10371204;28;853;-70
2023/05/24 16:26:22;;;;;;;;;;;20.00;55.90;;;;;;10369908;28;897;-70
2023/05/24 16:31:17;;;;;;;;;;;20.00;55.80;;;;;;10370644;28;875;-70
2023/05/24 16:36:13;;;;;;;;;;;20.00;56.00;;;;;;10369898;28;1988;-70
2023/05/24 16:41:08;;;;;;;;;;;20.00;55.80;;;;;;10369620;28;920;-70
2023/05/24 16:46:03;;;;;;;;;;;20.00;55.80;;;;;;10369395;28;859;-70
2023/05/24 16:50:59;;;;;;;;;;;20.10;55.90;;;;;;10369268;28;821;-70
2023/05/24 16:55:55;;;;;;;;;;;20.10;55.80;;;;;;10368983;28;1909;-68
2023/05/24 17:00:52;;;;;;;;;;;20.10;55.80;;;;;;10368907;28;892;-70
2023/05/24 17:05:49;;;;;;;;;;;20.00;55.60;;;;;;10368124;28;941;-70
2023/05/24 17:10:44;;;;;;;;;;;20.00;55.60;;;;;;10368444;28;882;-70
2023/05/24 17:15:40;;;;;;;;;;;20.00;55.60;;;;;;10368294;28;1978;-70
2023/05/24 17:20:35;;;;;;;;;;;20.00;55.50;;;;;;10368155;28;762;-70
2023/05/24 17:25:30;;;;;;;;;;;20.10;55.60;;;;;;10367964;28;872;-70
2023/05/24 17:30:28;;;;;;;;;;;20.10;55.70;;;;;;10368355;28;822;-70
2023/05/24 17:35:24;;;;;;;;;;;20.00;55.50;;;;;;10367009;28;1909;-70
2023/05/24 17:40:19;;;;;;;;;;;20.00;55.60;;;;;;10367977;28;949;-70
2023/05/24 17:45:15;;;;;;;;;;;20.00;55.60;;;;;;10366756;28;1043;-70
2023/05/24 17:50:10;;;;;;;;;;;20.10;55.70;;;;;;10367142;28;766;-70
2023/05/24 17:55:06;;;;;;;;;;;20.00;55.50;;;;;;10367675;28;1956;-70
2023/05/24 18:00:01;;;;;;;;;;;20.10;55.60;;;;;;10366886;28;828;-70
2023/05/24 18:04:57;;;;;;;;;;;20.00;55.60;;;;;;10367378;28;983;-71
2023/05/24 18:09:52;;;;;;;;;;;20.00;55.60;;;;;;10367077;28;868;-70
2023/05/24 18:14:47;;;;;;;;;;;20.00;56.20;;;;;;10366989;28;871;-70
2023/05/24 18:19:43;;;;;;;;;;;20.00;55.60;;;;;;10367132;28;1963;-70
2023/05/24 18:24:38;;;;;;;;;;;20.00;55.70;;;;;;10366958;28;824;-71
2023/05/24 18:29:35;;;;;;;;;;;20.00;55.60;;;;;;10366235;28;766;-70
2023/05/24 18:34:30;;;;;;;;;;;19.90;55.60;;;;;;10366303;28;1335;-72
2023/05/24 18:39:26;;;;;;;;;;;19.90;55.50;;;;;;10365948;28;1977;-72
2023/05/24 18:44:21;;;;;;;;;;;20.00;55.50;;;;;;10366547;28;852;-71
2023/05/24 18:49:17;;;;;;;;;;;20.00;55.40;;;;;;10374573;28;825;-71
2023/05/24 18:54:12;;;;;;;;;;;20.00;55.40;;;;;;10374450;28;882;-71
2023/05/24 18:59:08;;;;;;;;;;;20.00;55.40;;;;;;10373621;28;1963;-71
2023/05/24 19:04:03;;;;;;;;;;;20.00;55.30;;;;;;10374118;28;860;-71
2023/05/24 19:09:02;;;;;;;;;;;20.00;55.30;;;;;;10372763;28;809;-71
2023/05/24 19:13:58;;;;;;;;;;;20.00;55.40;;;;;;10373640;28;1560;-71
2023/05/24 19:18:53;;;;;;;;;;;20.00;55.40;;;;;;10372282;28;1963;-71
2023/05/24 19:23:48;;;;;;;;;;;20.00;55.40;;;;;;10372763;28;770;-71
2023/05/24 19:28:49;;;;;;;;;;;20.00;55.40;;;;;;10371975;28;904;-71
2023/05/24 19:33:46;;;;;;;;;;;20.00;55.40;;;;;;10372371;28;862;-71
2023/05/24 19:38:42;;;;;;;;;;;20.00;55.30;;;;;;10371892;28;1913;-71
2023/05/24 19:43:37;;;;;;;;;;;19.90;55.30;;;;;;10371935;28;964;-71
2023/05/24 19:48:32;;;;;;;;;;;19.90;55.30;;;;;;10373353;28;880;-70
2023/05/24 19:53:28;;;;;;;;;;;19.90;55.20;;;;;;10371601;28;836;-71
2023/05/24 19:58:24;;;;;;;;;;;19.90;55.40;;;;;;10370646;28;1969;-71
2023/05/24 20:03:20;;;;;;;;;;;19.90;55.40;;;;;;10371246;28;861;-71
2023/05/24 20:08:15;;;;;;;;;;;19.80;55.30;;;;;;10371898;28;897;-71
2023/05/24 20:13:11;;;;;;;;;;;19.80;55.20;;;;;;10370823;28;935;-71
2023/05/24 20:18:06;;;;;;;;;;;19.80;55.20;;;;;;10370526;28;1905;-71
2023/05/24 20:23:01;;;;;;;;;;;19.80;55.20;;;;;;10370441;28;1012;-71
2023/05/24 20:27:57;;;;;;;;;;;19.80;55.20;;;;;;10370257;28;928;-71
2023/05/24 20:32:52;;;;;;;;;;;19.80;55.20;;;;;;10370063;28;900;-71
2023/05/24 20:37:48;;;;;;;;;;;19.80;55.20;;;;;;10370174;28;1914;-71
2023/05/24 20:42:43;;;;;;;;;;;19.80;55.10;;;;;;10369689;28;795;-71
2023/05/24 20:47:38;;;;;;;;;;;19.70;55.10;;;;;;10370094;28;789;-71
2023/05/24 20:52:34;;;;;;;;;;;19.70;55.00;;;;;;10369266;28;901;-71
2023/05/24 20:57:29;;;;;;;;;;;19.70;55.10;;;;;;10370296;28;1902;-71
2023/05/24 21:02:27;;;;;;;;;;;19.70;55.20;;;;;;10369015;28;805;-72
2023/05/24 21:07:22;;;;;;;;;;;19.70;55.10;;;;;;10369463;28;964;-74
2023/05/24 21:12:17;;;;;;;;;;;19.60;55.10;;;;;;10367510;28;774;-75
2023/05/24 21:17:13;;;;;;;;;;;19.60;55.20;;;;;;10368789;28;1906;-75
2023/05/24 21:22:08;;;;;;;;;;;19.60;55.10;;;;;;10368189;28;853;-75
2023/05/24 21:27:04;;;;;;;;;;;19.60;55.20;;;;;;10368056;28;837;-75
2023/05/24 21:31:59;;;;;;;;;;;19.60;55.20;;;;;;10368459;28;809;-75
2023/05/24 21:36:54;;;;;;;;;;;19.60;55.30;;;;;;10367852;28;1983;-75
2023/05/24 21:41:50;;;;;;;;;;;19.60;55.20;;;;;;10368135;28;930;-75
2023/05/24 21:46:45;;;;;;;;;;;19.60;55.20;;;;;;10367327;28;967;-74
2023/05/24 21:51:40;;;;;;;;;;;19.60;55.20;;;;;;10367156;28;860;-75
2023/05/24 21:56:36;;;;;;;;;;;19.60;55.20;;;;;;10367581;28;2326;-75
2023/05/24 22:01:31;;;;;;;;;;;19.60;55.00;;;;;;10367738;28;860;-75
2023/05/24 22:06:27;;;;;;;;;;;19.60;55.10;;;;;;10367073;28;803;-75
2023/05/24 22:11:22;;;;;;;;;;;19.60;55.00;;;;;;10366628;28;928;-75
2023/05/24 22:16:17;;;;;;;;;;;19.60;55.00;;;;;;10366420;28;1969;-75
2023/05/24 22:21:13;;;;;;;;;;;19.60;55.00;;;;;;10371683;28;841;-75
2023/05/24 22:26:08;;;;;;;;;;;19.50;55.00;;;;;;10380100;28;766;-75
2023/05/24 22:31:03;;;;;;;;;;;19.50;55.00;;;;;;10379419;28;876;-75
2023/05/24 22:36:00;;;;;;;;;;;19.60;55.00;;;;;;10379553;28;1910;-75
2023/05/24 22:40:56;;;;;;;;;;;19.50;55.00;;;;;;10380146;28;830;-75
2023/05/24 22:45:51;;;;;;;;;;;19.50;54.90;;;;;;10379671;28;797;-75
2023/05/24 22:50:47;;;;;;;;;;;19.60;54.90;;;;;;10379632;28;856;-75
2023/05/24 22:55:42;;;;;;;;;;;19.60;54.80;;;;;;10379458;28;1972;-74
2023/05/24 23:00:37;;;;;;;;;;;19.60;54.80;;;;;;10380383;28;863;-74
2023/05/24 23:05:34;;;;;;;;;;;19.50;54.80;;;;;;10379895;28;928;-74
2023/05/24 23:10:29;;;;;;;;;;;19.60;54.80;;;;;;10379816;28;793;-75
2023/05/24 23:15:27;;;;;;;;;;;19.50;54.70;;;;;;10378424;28;1902;-75
2023/05/24 23:20:23;;;;;;;;;;;19.50;54.70;;;;;;10379023;28;992;-75
2023/05/24 23:25:18;;;;;;;;;;;19.50;54.80;;;;;;10379536;28;797;-75
2023/05/24 23:30:14;;;;;;;;;;;19.50;54.70;;;;;;10379008;28;869;-75
2023/05/24 23:35:09;;;;;;;;;;;19.50;54.80;;;;;;10372564;28;1119;-75
2023/05/24 23:40:05;;;;;;;;;;;19.50;54.80;;;;;;10372750;28;1977;-75
2023/05/24 23:45:01;;;;;;;;;;;19.50;54.80;;;;;;10372589;28;860;-75
2023/05/24 23:49:56;;;;;;;;;;;19.50;54.80;;;;;;10371816;28;857;-75
2023/05/24 23:54:51;;;;;;;;;;;19.50;54.80;;;;;;10372208;28;824;-75
2023/05/24 23:59:47;;;;;;;;;;;19.50;54.70;;;;;;10371347;28;1957;-75
